sensor_id;sensor_type;location;lat;lon;timestamp;P1;durP1;ratioP1;P2;durP2;ratioP2
20589;SDS011;10453;50.810;12.540;2023-06-01T00:04:13;7.00;;;4.03;;
20589;SDS011;10453;50.810;12.540;2023-06-01T00:08:31;5.55;;;3.55;;
20589;SDS011;10453;50.810;12.540;2023-06-01T00:12:49;7.30;;;4.03;;
20589;SDS011;10453;50.810;12.540;2023-06-01T00:17:06;5.70;;;3.47;;
20589;SDS011;10453;50.810;12.540;2023-06-01T00:21:24;8.00;;;4.37;;
20589;SDS011;10453;50.810;12.540;2023-06-01T00:25:42;5.90;;;4.03;;
20589;SDS011;10453;50.810;12.540;2023-06-01T00:30:00;7.57;;;4.40;;
20589;SDS011;10453;50.810;12.540;2023-06-01T00:34:17;7.55;;;4.43;;
20589;SDS011;10453;50.810;12.540;2023-06-01T00:38:34;5.78;;;4.10;;
20589;SDS011;10453;50.810;12.540;2023-06-01T00:42:52;9.38;;;4.05;;
20589;SDS011;10453;50.810;12.540;2023-06-01T00:47:09;8.57;;;4.13;;
20589;SDS011;10453;50.810;12.540;2023-06-01T00:51:27;9.37;;;4.53;;
20589;SDS011;10453;50.810;12.540;2023-06-01T00:55:45;8.35;;;4.10;;
20589;SDS011;10453;50.810;12.540;2023-06-01T01:00:03;6.20;;;4.05;;
20589;SDS011;10453;50.810;12.540;2023-06-01T01:04:27;7.28;;;3.97;;
20589;SDS011;10453;50.810;12.540;2023-06-01T01:14:07;8.38;;;4.47;;
20589;SDS011;10453;50.810;12.540;2023-06-01T01:18:11;9.80;;;3.92;;
20589;SDS011;10453;50.810;12.540;2023-06-01T01:26:52;8.63;;;4.30;;
20589;SDS011;10453;50.810;12.540;2023-06-01T01:35:59;12.25;;;4.22;;
20589;SDS011;10453;50.810;12.540;2023-06-01T01:40:18;6.25;;;3.65;;
20589;SDS011;10453;50.810;12.540;2023-06-01T01:44:36;6.57;;;4.10;;
20589;SDS011;10453;50.810;12.540;2023-06-01T01:53:31;6.60;;;4.47;;
20589;SDS011;10453;50.810;12.540;2023-06-01T01:57:52;7.72;;;4.10;;
20589;SDS011;10453;50.810;12.540;2023-06-01T02:02:12;8.18;;;4.45;;
20589;SDS011;10453;50.810;12.540;2023-06-01T02:06:30;8.07;;;4.40;;
20589;SDS011;10453;50.810;12.540;2023-06-01T02:10:47;6.20;;;4.35;;
20589;SDS011;10453;50.810;12.540;2023-06-01T02:15:05;7.60;;;4.18;;
20589;SDS011;10453;50.810;12.540;2023-06-01T02:19:23;6.87;;;4.57;;
20589;SDS011;10453;50.810;12.540;2023-06-01T02:23:40;5.53;;;4.13;;
20589;SDS011;10453;50.810;12.540;2023-06-01T02:27:59;7.82;;;4.22;;
20589;SDS011;10453;50.810;12.540;2023-06-01T02:32:16;9.35;;;4.70;;
20589;SDS011;10453;50.810;12.540;2023-06-01T02:36:33;8.70;;;4.07;;
20589;SDS011;10453;50.810;12.540;2023-06-01T02:40:51;5.77;;;4.30;;
20589;SDS011;10453;50.810;12.540;2023-06-01T02:45:09;10.93;;;5.22;;
20589;SDS011;10453;50.810;12.540;2023-06-01T02:49:26;7.88;;;4.80;;
20589;SDS011;10453;50.810;12.540;2023-06-01T02:53:44;10.18;;;4.32;;
20589;SDS011;10453;50.810;12.540;2023-06-01T02:58:03;9.95;;;4.53;;
20589;SDS011;10453;50.810;12.540;2023-06-01T03:02:21;7.43;;;4.82;;
20589;SDS011;10453;50.810;12.540;2023-06-01T03:06:39;8.60;;;4.50;;
20589;SDS011;10453;50.810;12.540;2023-06-01T03:10:57;10.30;;;4.75;;
20589;SDS011;10453;50.810;12.540;2023-06-01T03:15:15;6.82;;;4.25;;
20589;SDS011;10453;50.810;12.540;2023-06-01T03:19:32;8.85;;;5.45;;
20589;SDS011;10453;50.810;12.540;2023-06-01T03:23:50;7.95;;;4.68;;
20589;SDS011;10453;50.810;12.540;2023-06-01T03:28:08;6.30;;;4.73;;
20589;SDS011;10453;50.810;12.540;2023-06-01T03:32:25;7.72;;;4.63;;
20589;SDS011;10453;50.810;12.540;2023-06-01T03:36:42;8.98;;;4.70;;
20589;SDS011;10453;50.810;12.540;2023-06-01T03:41:04;7.85;;;4.90;;
20589;SDS011;10453;50.810;12.540;2023-06-01T03:45:22;8.27;;;5.50;;
20589;SDS011;10453;50.810;12.540;2023-06-01T03:49:39;10.57;;;5.07;;
20589;SDS011;10453;50.810;12.540;2023-06-01T03:53:57;10.32;;;5.43;;
20589;SDS011;10453;50.810;12.540;2023-06-01T03:58:17;5.78;;;4.07;;
20589;SDS011;10453;50.810;12.540;2023-06-01T04:02:36;14.98;;;5.05;;
20589;SDS011;10453;50.810;12.540;2023-06-01T04:06:57;10.77;;;5.40;;
20589;SDS011;10453;50.810;12.540;2023-06-01T04:11:17;9.85;;;5.07;;
20589;SDS011;10453;50.810;12.540;2023-06-01T04:15:35;9.35;;;5.32;;
20589;SDS011;10453;50.810;12.540;2023-06-01T04:19:52;11.85;;;5.50;;
20589;SDS011;10453;50.810;12.540;2023-06-01T04:24:12;8.50;;;4.97;;
20589;SDS011;10453;50.810;12.540;2023-06-01T04:28:29;9.10;;;5.50;;
20589;SDS011;10453;50.810;12.540;2023-06-01T04:32:49;7.18;;;5.07;;
20589;SDS011;10453;50.810;12.540;2023-06-01T04:37:06;12.75;;;5.68;;
20589;SDS011;10453;50.810;12.540;2023-06-01T04:41:26;8.77;;;5.22;;
20589;SDS011;10453;50.810;12.540;2023-06-01T04:45:43;8.75;;;5.05;;
20589;SDS011;10453;50.810;12.540;2023-06-01T04:50:02;8.32;;;5.13;;
20589;SDS011;10453;50.810;12.540;2023-06-01T04:54:26;8.60;;;4.78;;
20589;SDS011;10453;50.810;12.540;2023-06-01T04:58:44;9.23;;;4.85;;
20589;SDS011;10453;50.810;12.540;2023-06-01T05:03:04;7.38;;;4.28;;
20589;SDS011;10453;50.810;12.540;2023-06-01T05:07:21;8.63;;;5.18;;
20589;SDS011;10453;50.810;12.540;2023-06-01T05:11:41;9.65;;;4.82;;
20589;SDS011;10453;50.810;12.540;2023-06-01T05:15:58;8.35;;;5.35;;
20589;SDS011;10453;50.810;12.540;2023-06-01T05:20:16;7.38;;;5.30;;
20589;SDS011;10453;50.810;12.540;2023-06-01T05:24:33;8.10;;;5.32;;
20589;SDS011;10453;50.810;12.540;2023-06-01T05:28:50;9.40;;;5.40;;
20589;SDS011;10453;50.810;12.540;2023-06-01T05:33:08;8.20;;;5.22;;
20589;SDS011;10453;50.810;12.540;2023-06-01T05:37:26;8.67;;;5.93;;
20589;SDS011;10453;50.810;12.540;2023-06-01T05:41:43;7.15;;;5.40;;
20589;SDS011;10453;50.810;12.540;2023-06-01T05:46:01;10.93;;;5.47;;
20589;SDS011;10453;50.810;12.540;2023-06-01T05:50:19;8.37;;;5.90;;
20589;SDS011;10453;50.810;12.540;2023-06-01T05:54:36;12.07;;;6.35;;
20589;SDS011;10453;50.810;12.540;2023-06-01T05:58:54;8.98;;;5.68;;
20589;SDS011;10453;50.810;12.540;2023-06-01T06:03:11;11.38;;;5.68;;
20589;SDS011;10453;50.810;12.540;2023-06-01T06:07:29;10.90;;;5.15;;
20589;SDS011;10453;50.810;12.540;2023-06-01T06:11:47;7.97;;;5.57;;
20589;SDS011;10453;50.810;12.540;2023-06-01T06:16:04;10.30;;;5.43;;
20589;SDS011;10453;50.810;12.540;2023-06-01T06:20:22;13.27;;;5.57;;
20589;SDS011;10453;50.810;12.540;2023-06-01T06:24:40;10.13;;;5.68;;
20589;SDS011;10453;50.810;12.540;2023-06-01T06:28:58;12.45;;;5.93;;
20589;SDS011;10453;50.810;12.540;2023-06-01T06:33:16;8.52;;;5.68;;
20589;SDS011;10453;50.810;12.540;2023-06-01T06:37:33;11.38;;;5.65;;
20589;SDS011;10453;50.810;12.540;2023-06-01T06:41:52;11.07;;;5.93;;
20589;SDS011;10453;50.810;12.540;2023-06-01T06:46:10;8.50;;;5.93;;
20589;SDS011;10453;50.810;12.540;2023-06-01T06:50:27;9.63;;;5.65;;
20589;SDS011;10453;50.810;12.540;2023-06-01T06:54:45;11.98;;;6.22;;
20589;SDS011;10453;50.810;12.540;2023-06-01T06:59:03;11.80;;;6.03;;
20589;SDS011;10453;50.810;12.540;2023-06-01T07:03:24;13.20;;;6.03;;
20589;SDS011;10453;50.810;12.540;2023-06-01T07:07:42;8.20;;;5.88;;
20589;SDS011;10453;50.810;12.540;2023-06-01T07:11:59;9.20;;;5.82;;
20589;SDS011;10453;50.810;12.540;2023-06-01T07:16:17;13.75;;;6.38;;
20589;SDS011;10453;50.810;12.540;2023-06-01T07:20:34;11.00;;;5.93;;
20589;SDS011;10453;50.810;12.540;2023-06-01T07:24:51;10.38;;;6.53;;
20589;SDS011;10453;50.810;12.540;2023-06-01T07:29:10;9.70;;;6.35;;
20589;SDS011;10453;50.810;12.540;2023-06-01T07:33:28;8.80;;;5.22;;
20589;SDS011;10453;50.810;12.540;2023-06-01T07:37:46;13.13;;;5.95;;
20589;SDS011;10453;50.810;12.540;2023-06-01T07:42:03;10.20;;;5.65;;
20589;SDS011;10453;50.810;12.540;2023-06-01T07:46:21;9.20;;;6.03;;
20589;SDS011;10453;50.810;12.540;2023-06-01T07:50:40;11.90;;;6.00;;
20589;SDS011;10453;50.810;12.540;2023-06-01T07:54:57;12.70;;;6.30;;
20589;SDS011;10453;50.810;12.540;2023-06-01T07:59:14;13.02;;;5.60;;
20589;SDS011;10453;50.810;12.540;2023-06-01T08:03:32;9.85;;;5.97;;
20589;SDS011;10453;50.810;12.540;2023-06-01T08:07:50;10.77;;;5.65;;
20589;SDS011;10453;50.810;12.540;2023-06-01T08:12:07;11.95;;;6.00;;
20589;SDS011;10453;50.810;12.540;2023-06-01T08:16:25;9.70;;;5.07;;
20589;SDS011;10453;50.810;12.540;2023-06-01T08:20:43;8.95;;;5.28;;
20589;SDS011;10453;50.810;12.540;2023-06-01T08:25:01;8.65;;;5.38;;
20589;SDS011;10453;50.810;12.540;2023-06-01T08:29:18;10.05;;;5.22;;
20589;SDS011;10453;50.810;12.540;2023-06-01T08:33:50;10.60;;;5.25;;
20589;SDS011;10453;50.810;12.540;2023-06-01T08:38:10;7.68;;;4.95;;
20589;SDS011;10453;50.810;12.540;2023-06-01T08:47:02;9.07;;;4.70;;
20589;SDS011;10453;50.810;12.540;2023-06-01T08:51:21;7.00;;;4.60;;
20589;SDS011;10453;50.810;12.540;2023-06-01T08:55:39;8.68;;;4.40;;
20589;SDS011;10453;50.810;12.540;2023-06-01T08:59:57;8.67;;;4.77;;
20589;SDS011;10453;50.810;12.540;2023-06-01T09:04:16;7.53;;;4.43;;
20589;SDS011;10453;50.810;12.540;2023-06-01T09:08:34;9.10;;;4.75;;
20589;SDS011;10453;50.810;12.540;2023-06-01T09:12:54;9.20;;;4.65;;
20589;SDS011;10453;50.810;12.540;2023-06-01T09:17:12;8.23;;;4.47;;
20589;SDS011;10453;50.810;12.540;2023-06-01T09:21:31;6.60;;;4.15;;
20589;SDS011;10453;50.810;12.540;2023-06-01T09:25:50;9.40;;;4.88;;
20589;SDS011;10453;50.810;12.540;2023-06-01T09:30:39;6.57;;;4.38;;
20589;SDS011;10453;50.810;12.540;2023-06-01T09:34:59;6.35;;;4.72;;
20589;SDS011;10453;50.810;12.540;2023-06-01T09:39:17;7.97;;;4.95;;
20589;SDS011;10453;50.810;12.540;2023-06-01T09:43:36;8.18;;;4.28;;
20589;SDS011;10453;50.810;12.540;2023-06-01T09:48:01;8.55;;;4.00;;
20589;SDS011;10453;50.810;12.540;2023-06-01T09:52:38;8.65;;;3.72;;
20589;SDS011;10453;50.810;12.540;2023-06-01T09:56:55;6.68;;;3.42;;
20589;SDS011;10453;50.810;12.540;2023-06-01T10:01:30;18.60;;;4.47;;
20589;SDS011;10453;50.810;12.540;2023-06-01T10:05:48;6.60;;;3.50;;
20589;SDS011;10453;50.810;12.540;2023-06-01T10:14:24;6.57;;;3.50;;
20589;SDS011;10453;50.810;12.540;2023-06-01T10:18:42;8.13;;;3.43;;
20589;SDS011;10453;50.810;12.540;2023-06-01T10:23:03;8.48;;;3.88;;
20589;SDS011;10453;50.810;12.540;2023-06-01T10:27:33;5.38;;;3.20;;
20589;SDS011;10453;50.810;12.540;2023-06-01T10:31:56;7.85;;;2.85;;
20589;SDS011;10453;50.810;12.540;2023-06-01T10:36:17;6.93;;;3.47;;
20589;SDS011;10453;50.810;12.540;2023-06-01T10:40:35;7.55;;;2.75;;
20589;SDS011;10453;50.810;12.540;2023-06-01T10:49:11;6.47;;;2.80;;
20589;SDS011;10453;50.810;12.540;2023-06-01T10:53:30;5.97;;;2.70;;
20589;SDS011;10453;50.810;12.540;2023-06-01T10:57:47;5.35;;;2.65;;
20589;SDS011;10453;50.810;12.540;2023-06-01T11:02:05;5.95;;;2.88;;
20589;SDS011;10453;50.810;12.540;2023-06-01T11:06:24;5.30;;;2.78;;
20589;SDS011;10453;50.810;12.540;2023-06-01T11:15:09;6.50;;;2.88;;
20589;SDS011;10453;50.810;12.540;2023-06-01T11:19:28;7.60;;;2.70;;
20589;SDS011;10453;50.810;12.540;2023-06-01T11:23:47;7.95;;;3.00;;
20589;SDS011;10453;50.810;12.540;2023-06-01T11:32:24;6.93;;;3.55;;
20589;SDS011;10453;50.810;12.540;2023-06-01T11:36:45;8.32;;;3.25;;
20589;SDS011;10453;50.810;12.540;2023-06-01T11:41:05;4.35;;;2.78;;
20589;SDS011;10453;50.810;12.540;2023-06-01T11:45:24;4.53;;;2.63;;
20589;SDS011;10453;50.810;12.540;2023-06-01T11:49:45;6.85;;;3.28;;
20589;SDS011;10453;50.810;12.540;2023-06-01T11:54:07;7.18;;;2.92;;
20589;SDS011;10453;50.810;12.540;2023-06-01T11:58:29;7.78;;;2.80;;
20589;SDS011;10453;50.810;12.540;2023-06-01T12:02:47;9.80;;;2.85;;
20589;SDS011;10453;50.810;12.540;2023-06-01T12:07:05;7.03;;;3.22;;
20589;SDS011;10453;50.810;12.540;2023-06-01T12:11:24;6.45;;;3.10;;
20589;SDS011;10453;50.810;12.540;2023-06-01T12:15:46;10.57;;;3.22;;
20589;SDS011;10453;50.810;12.540;2023-06-01T12:20:04;7.40;;;3.13;;
20589;SDS011;10453;50.810;12.540;2023-06-01T12:24:30;10.25;;;3.75;;
20589;SDS011;10453;50.810;12.540;2023-06-01T12:28:51;8.38;;;3.00;;
20589;SDS011;10453;50.810;12.540;2023-06-01T12:33:30;7.55;;;3.08;;
20589;SDS011;10453;50.810;12.540;2023-06-01T12:38:01;6.70;;;3.20;;
20589;SDS011;10453;50.810;12.540;2023-06-01T12:42:32;9.82;;;3.03;;
20589;SDS011;10453;50.810;12.540;2023-06-01T12:46:57;7.25;;;3.53;;
20589;SDS011;10453;50.810;12.540;2023-06-01T12:51:16;5.70;;;2.95;;
20589;SDS011;10453;50.810;12.540;2023-06-01T12:55:33;6.23;;;3.00;;
20589;SDS011;10453;50.810;12.540;2023-06-01T12:59:50;3.92;;;2.47;;
20589;SDS011;10453;50.810;12.540;2023-06-01T13:04:08;4.17;;;2.40;;
20589;SDS011;10453;50.810;12.540;2023-06-01T13:08:26;7.50;;;2.60;;
20589;SDS011;10453;50.810;12.540;2023-06-01T13:12:44;9.63;;;2.60;;
20589;SDS011;10453;50.810;12.540;2023-06-01T13:17:01;4.35;;;2.58;;
20589;SDS011;10453;50.810;12.540;2023-06-01T13:21:22;3.85;;;2.70;;
20589;SDS011;10453;50.810;12.540;2023-06-01T13:25:39;6.00;;;3.07;;
20589;SDS011;10453;50.810;12.540;2023-06-01T13:34:15;5.88;;;3.05;;
20589;SDS011;10453;50.810;12.540;2023-06-01T13:38:37;5.65;;;3.15;;
20589;SDS011;10453;50.810;12.540;2023-06-01T13:42:55;7.30;;;3.30;;
20589;SDS011;10453;50.810;12.540;2023-06-01T13:47:13;6.25;;;3.40;;
20589;SDS011;10453;50.810;12.540;2023-06-01T13:51:33;6.03;;;3.60;;
20589;SDS011;10453;50.810;12.540;2023-06-01T13:55:54;8.07;;;4.00;;
20589;SDS011;10453;50.810;12.540;2023-06-01T14:04:31;10.87;;;4.17;;
20589;SDS011;10453;50.810;12.540;2023-06-01T14:08:48;7.13;;;4.93;;
20589;SDS011;10453;50.810;12.540;2023-06-01T14:13:07;8.80;;;5.20;;
20589;SDS011;10453;50.810;12.540;2023-06-01T14:17:24;9.37;;;5.87;;
20589;SDS011;10453;50.810;12.540;2023-06-01T14:21:42;11.57;;;7.17;;
20589;SDS011;10453;50.810;12.540;2023-06-01T14:25:59;9.43;;;7.47;;
20589;SDS011;10453;50.810;12.540;2023-06-01T14:30:17;9.38;;;7.50;;
20589;SDS011;10453;50.810;12.540;2023-06-01T14:34:35;14.57;;;8.50;;
20589;SDS011;10453;50.810;12.540;2023-06-01T14:38:52;11.40;;;7.53;;
20589;SDS011;10453;50.810;12.540;2023-06-01T14:43:10;9.23;;;7.53;;
20589;SDS011;10453;50.810;12.540;2023-06-01T14:47:27;9.18;;;7.00;;
20589;SDS011;10453;50.810;12.540;2023-06-01T14:51:44;11.50;;;6.80;;
20589;SDS011;10453;50.810;12.540;2023-06-01T14:56:02;9.43;;;7.47;;
20589;SDS011;10453;50.810;12.540;2023-06-01T15:00:20;10.07;;;7.00;;
20589;SDS011;10453;50.810;12.540;2023-06-01T15:04:38;17.13;;;6.67;;
20589;SDS011;10453;50.810;12.540;2023-06-01T15:08:55;10.57;;;7.03;;
20589;SDS011;10453;50.810;12.540;2023-06-01T15:13:13;8.52;;;6.95;;
20589;SDS011;10453;50.810;12.540;2023-06-01T15:17:30;10.10;;;6.77;;
20589;SDS011;10453;50.810;12.540;2023-06-01T15:21:48;8.07;;;6.75;;
20589;SDS011;10453;50.810;12.540;2023-06-01T15:26:06;8.35;;;6.60;;
20589;SDS011;10453;50.810;12.540;2023-06-01T15:30:23;9.52;;;7.32;;
20589;SDS011;10453;50.810;12.540;2023-06-01T15:34:42;9.48;;;7.93;;
20589;SDS011;10453;50.810;12.540;2023-06-01T15:39:00;10.32;;;9.02;;
20589;SDS011;10453;50.810;12.540;2023-06-01T15:43:18;10.27;;;8.88;;
20589;SDS011;10453;50.810;12.540;2023-06-01T15:47:35;9.60;;;7.85;;
20589;SDS011;10453;50.810;12.540;2023-06-01T15:51:53;10.53;;;8.20;;
20589;SDS011;10453;50.810;12.540;2023-06-01T15:56:11;17.00;;;8.53;;
20589;SDS011;10453;50.810;12.540;2023-06-01T16:00:28;14.35;;;8.98;;
20589;SDS011;10453;50.810;12.540;2023-06-01T16:04:48;10.48;;;8.57;;
20589;SDS011;10453;50.810;12.540;2023-06-01T16:09:05;13.05;;;9.52;;
20589;SDS011;10453;50.810;12.540;2023-06-01T16:13:22;14.18;;;8.70;;
20589;SDS011;10453;50.810;12.540;2023-06-01T16:17:40;10.32;;;8.05;;
20589;SDS011;10453;50.810;12.540;2023-06-01T16:21:57;11.80;;;7.90;;
20589;SDS011;10453;50.810;12.540;2023-06-01T16:26:15;10.93;;;7.90;;
20589;SDS011;10453;50.810;12.540;2023-06-01T16:30:32;11.93;;;8.23;;
20589;SDS011;10453;50.810;12.540;2023-06-01T16:34:50;13.70;;;8.60;;
20589;SDS011;10453;50.810;12.540;2023-06-01T16:39:07;14.43;;;8.20;;
20589;SDS011;10453;50.810;12.540;2023-06-01T16:43:25;11.40;;;7.95;;
20589;SDS011;10453;50.810;12.540;2023-06-01T16:47:42;13.50;;;8.48;;
20589;SDS011;10453;50.810;12.540;2023-06-01T16:52:00;10.88;;;6.68;;
20589;SDS011;10453;50.810;12.540;2023-06-01T16:56:17;11.57;;;8.80;;
20589;SDS011;10453;50.810;12.540;2023-06-01T17:00:35;12.65;;;9.00;;
20589;SDS011;10453;50.810;12.540;2023-06-01T17:04:52;11.93;;;9.40;;
20589;SDS011;10453;50.810;12.540;2023-06-01T17:09:12;13.50;;;9.82;;
20589;SDS011;10453;50.810;12.540;2023-06-01T17:13:30;13.68;;;9.75;;
20589;SDS011;10453;50.810;12.540;2023-06-01T17:17:51;10.43;;;9.27;;
20589;SDS011;10453;50.810;12.540;2023-06-01T17:22:09;10.93;;;8.77;;
20589;SDS011;10453;50.810;12.540;2023-06-01T17:26:27;14.32;;;8.55;;
20589;SDS011;10453;50.810;12.540;2023-06-01T17:30:44;12.93;;;8.82;;
20589;SDS011;10453;50.810;12.540;2023-06-01T17:35:01;16.05;;;8.88;;
20589;SDS011;10453;50.810;12.540;2023-06-01T17:39:19;14.07;;;9.90;;
20589;SDS011;10453;50.810;12.540;2023-06-01T17:43:38;14.35;;;9.52;;
20589;SDS011;10453;50.810;12.540;2023-06-01T17:47:55;12.07;;;9.45;;
20589;SDS011;10453;50.810;12.540;2023-06-01T17:52:14;13.50;;;9.77;;
20589;SDS011;10453;50.810;12.540;2023-06-01T17:56:34;13.60;;;9.52;;
20589;SDS011;10453;50.810;12.540;2023-06-01T18:00:52;14.83;;;10.07;;
20589;SDS011;10453;50.810;12.540;2023-06-01T18:05:10;14.33;;;9.90;;
20589;SDS011;10453;50.810;12.540;2023-06-01T18:09:27;17.67;;;10.23;;
20589;SDS011;10453;50.810;12.540;2023-06-01T18:13:45;14.38;;;8.82;;
20589;SDS011;10453;50.810;12.540;2023-06-01T18:18:03;17.30;;;8.70;;
20589;SDS011;10453;50.810;12.540;2023-06-01T18:22:20;15.17;;;8.67;;
20589;SDS011;10453;50.810;12.540;2023-06-01T18:26:38;10.77;;;7.93;;
20589;SDS011;10453;50.810;12.540;2023-06-01T18:30:56;17.33;;;8.23;;
20589;SDS011;10453;50.810;12.540;2023-06-01T18:35:13;11.68;;;7.28;;
20589;SDS011;10453;50.810;12.540;2023-06-01T18:39:31;14.10;;;7.75;;
20589;SDS011;10453;50.810;12.540;2023-06-01T18:43:49;9.67;;;6.97;;
20589;SDS011;10453;50.810;12.540;2023-06-01T18:48:07;12.68;;;7.22;;
20589;SDS011;10453;50.810;12.540;2023-06-01T18:52:24;10.98;;;7.60;;
20589;SDS011;10453;50.810;12.540;2023-06-01T18:56:42;12.75;;;7.88;;
20589;SDS011;10453;50.810;12.540;2023-06-01T19:01:01;10.27;;;7.00;;
20589;SDS011;10453;50.810;12.540;2023-06-01T19:05:20;12.63;;;6.33;;
20589;SDS011;10453;50.810;12.540;2023-06-01T19:09:39;13.02;;;6.28;;
20589;SDS011;10453;50.810;12.540;2023-06-01T19:13:59;10.40;;;5.82;;
20589;SDS011;10453;50.810;12.540;2023-06-01T19:18:16;12.73;;;5.35;;
20589;SDS011;10453;50.810;12.540;2023-06-01T19:22:34;11.60;;;6.13;;
20589;SDS011;10453;50.810;12.540;2023-06-01T19:31:12;8.18;;;5.35;;
20589;SDS011;10453;50.810;12.540;2023-06-01T19:35:31;10.20;;;6.07;;
20589;SDS011;10453;50.810;12.540;2023-06-01T19:39:49;13.38;;;5.95;;
20589;SDS011;10453;50.810;12.540;2023-06-01T19:44:11;10.40;;;6.00;;
20589;SDS011;10453;50.810;12.540;2023-06-01T19:48:30;9.05;;;6.03;;
20589;SDS011;10453;50.810;12.540;2023-06-01T19:52:49;9.45;;;5.57;;
20589;SDS011;10453;50.810;12.540;2023-06-01T19:57:07;6.13;;;4.90;;
20589;SDS011;10453;50.810;12.540;2023-06-01T20:01:26;12.87;;;5.90;;
20589;SDS011;10453;50.810;12.540;2023-06-01T20:05:45;9.00;;;5.10;;
20589;SDS011;10453;50.810;12.540;2023-06-01T20:10:13;9.52;;;5.40;;
20589;SDS011;10453;50.810;12.540;2023-06-01T20:14:33;10.23;;;5.55;;
20589;SDS011;10453;50.810;12.540;2023-06-01T20:18:51;11.43;;;6.18;;
20589;SDS011;10453;50.810;12.540;2023-06-01T20:23:09;7.72;;;5.13;;
20589;SDS011;10453;50.810;12.540;2023-06-01T20:27:29;8.95;;;5.43;;
20589;SDS011;10453;50.810;12.540;2023-06-01T20:31:51;6.35;;;5.47;;
20589;SDS011;10453;50.810;12.540;2023-06-01T20:36:11;8.27;;;6.28;;
20589;SDS011;10453;50.810;12.540;2023-06-01T20:40:43;12.27;;;6.90;;
20589;SDS011;10453;50.810;12.540;2023-06-01T20:50:13;11.38;;;6.65;;
20589;SDS011;10453;50.810;12.540;2023-06-01T20:54:35;9.73;;;6.43;;
20589;SDS011;10453;50.810;12.540;2023-06-01T20:58:52;10.20;;;6.80;;
20589;SDS011;10453;50.810;12.540;2023-06-01T21:03:10;9.88;;;6.60;;
20589;SDS011;10453;50.810;12.540;2023-06-01T21:07:28;9.90;;;7.47;;
20589;SDS011;10453;50.810;12.540;2023-06-01T21:11:45;9.30;;;7.90;;
20589;SDS011;10453;50.810;12.540;2023-06-01T21:16:04;8.65;;;7.28;;
20589;SDS011;10453;50.810;12.540;2023-06-01T21:20:22;9.50;;;7.05;;
20589;SDS011;10453;50.810;12.540;2023-06-01T21:28:58;10.75;;;8.32;;
20589;SDS011;10453;50.810;12.540;2023-06-01T21:33:15;10.13;;;8.43;;
20589;SDS011;10453;50.810;12.540;2023-06-01T21:37:33;13.00;;;8.15;;
20589;SDS011;10453;50.810;12.540;2023-06-01T21:41:51;12.32;;;8.90;;
20589;SDS011;10453;50.810;12.540;2023-06-01T21:46:08;10.98;;;8.80;;
20589;SDS011;10453;50.810;12.540;2023-06-01T21:50:26;11.43;;;9.50;;
20589;SDS011;10453;50.810;12.540;2023-06-01T21:54:47;12.95;;;10.45;;
20589;SDS011;10453;50.810;12.540;2023-06-01T21:59:04;14.35;;;9.60;;
20589;SDS011;10453;50.810;12.540;2023-06-01T22:03:27;12.07;;;10.50;;
20589;SDS011;10453;50.810;12.540;2023-06-01T22:07:44;12.13;;;9.65;;
20589;SDS011;10453;50.810;12.540;2023-06-01T22:12:02;12.70;;;9.15;;
20589;SDS011;10453;50.810;12.540;2023-06-01T22:16:20;13.73;;;9.82;;
20589;SDS011;10453;50.810;12.540;2023-06-01T22:20:37;11.77;;;10.00;;
20589;SDS011;10453;50.810;12.540;2023-06-01T22:24:54;14.93;;;9.77;;
20589;SDS011;10453;50.810;12.540;2023-06-01T22:29:12;15.30;;;10.70;;
20589;SDS011;10453;50.810;12.540;2023-06-01T22:33:30;16.10;;;11.07;;
20589;SDS011;10453;50.810;12.540;2023-06-01T22:37:47;15.50;;;10.65;;
20589;SDS011;10453;50.810;12.540;2023-06-01T22:42:05;14.75;;;10.90;;
20589;SDS011;10453;50.810;12.540;2023-06-01T22:50:42;14.45;;;10.93;;
20589;SDS011;10453;50.810;12.540;2023-06-01T22:55:00;16.17;;;10.87;;
20589;SDS011;10453;50.810;12.540;2023-06-01T22:59:22;16.20;;;11.70;;
20589;SDS011;10453;50.810;12.540;2023-06-01T23:03:40;12.65;;;10.60;;
20589;SDS011;10453;50.810;12.540;2023-06-01T23:07:57;16.45;;;10.93;;
20589;SDS011;10453;50.810;12.540;2023-06-01T23:12:15;16.13;;;11.55;;
20589;SDS011;10453;50.810;12.540;2023-06-01T23:16:32;15.23;;;11.70;;
20589;SDS011;10453;50.810;12.540;2023-06-01T23:20:50;16.17;;;11.40;;
20589;SDS011;10453;50.810;12.540;2023-06-01T23:25:09;16.98;;;12.63;;
20589;SDS011;10453;50.810;12.540;2023-06-01T23:29:27;17.27;;;13.10;;
20589;SDS011;10453;50.810;12.540;2023-06-01T23:33:47;18.48;;;13.25;;
20589;SDS011;10453;50.810;12.540;2023-06-01T23:38:04;20.98;;;13.35;;
20589;SDS011;10453;50.810;12.540;2023-06-01T23:42:27;20.98;;;13.82;;
20589;SDS011;10453;50.810;12.540;2023-06-01T23:46:45;19.13;;;13.07;;
20589;SDS011;10453;50.810;12.540;2023-06-01T23:51:03;18.83;;;14.37;;
20589;SDS011;10453;50.810;12.540;2023-06-01T23:55:20;18.50;;;14.00;;
20589;SDS011;10453;50.810;12.540;2023-06-01T23:59:39;19.58;;;13.85;;
